Time;durP1;ratioP1;P1;durP2;ratioP2;P2;SDS_P1;SDS_P2;PMS_P1;PMS_P2;Temp;Humidity;BMP_temperature;BMP_pressure;BME280_temperature;BME280_humidity;BME280_pressure;Samples;Min_cycle;Max_cycle;Signal;HPM_P1;HPM_P2
2022/07/24 00:00:32;;;;;;;5.55;4.05;;;13.80;1.00;;;;;;5054852;28;20041;-28
2022/07/24 00:02:57;;;;;;;7.88;3.70;;;13.80;1.00;;;;;;5054631;28;20047;-28
2022/07/24 00:05:23;;;;;;;5.43;4.60;;;13.80;1.00;;;;;;5054519;28;20062;-28
2022/07/24 00:07:49;;;;;;;6.53;4.93;;;13.90;1.00;;;;;;5054648;28;20064;-27
2022/07/24 00:10:15;;;;;;;7.25;4.72;;;13.90;1.00;;;;;;5057638;28;20049;-28
2022/07/24 00:12:41;;;;;;;5.53;4.40;;;13.90;21.60;;;;;;5053299;28;20040;-28
2022/07/24 00:15:08;;;;;;;11.23;5.85;;;13.90;93.40;;;;;;5054381;28;20457;-29
2022/07/24 00:17:33;;;;;;;6.50;4.55;;;13.80;73.90;;;;;;5057166;28;20041;-28
2022/07/24 00:19:59;;;;;;;6.55;5.30;;;13.80;52.90;;;;;;5054532;28;20517;-28
2022/07/24 00:22:25;;;;;;;8.63;4.22;;;13.80;65.80;;;;;;5053307;28;20044;-28
2022/07/24 00:24:50;;;;;;;6.38;4.38;;;13.80;31.00;;;;;;5053518;28;20123;-28
2022/07/24 00:27:17;;;;;;;5.45;4.30;;;13.80;6.50;;;;;;5054042;28;20041;-31
2022/07/24 00:29:42;;;;;;;6.13;4.47;;;13.70;41.70;;;;;;5053132;28;20468;-28
2022/07/24 00:32:08;;;;;;;6.70;5.20;;;13.70;21.90;;;;;;5053328;28;20044;-29
2022/07/24 00:34:34;;;;;;;9.10;5.35;;;13.70;56.80;;;;;;5053990;28;20045;-28
2022/07/24 00:37:00;;;;;;;6.53;5.05;;;13.70;90.20;;;;;;5053228;28;20041;-29
2022/07/24 00:39:25;;;;;;;5.53;4.75;;;13.70;86.50;;;;;;5054414;28;20045;-28
2022/07/24 00:41:54;;;;;;;11.00;5.43;;;13.60;99.20;;;;;;5053865;28;20490;-28
2022/07/24 00:44:20;;;;;;;5.97;4.88;;;13.60;99.90;;;;;;5057351;28;20041;-28
2022/07/24 00:46:47;;;;;;;5.18;4.68;;;13.60;99.90;;;;;;5053692;28;20516;-28
2022/07/24 00:49:15;;;;;;;6.88;5.15;;;13.50;99.90;;;;;;5054323;28;20048;-28
2022/07/24 00:51:43;;;;;;;6.18;5.57;;;13.50;99.90;;;;;;5053446;28;20399;-28
2022/07/24 00:54:11;;;;;;;6.20;5.22;;;13.50;99.90;;;;;;5068898;28;20059;-29
2022/07/24 00:56:37;;;;;;;5.60;5.10;;;13.50;99.90;;;;;;5053884;28;20620;-28
2022/07/24 00:59:04;;;;;;;5.90;5.30;;;13.50;99.90;;;;;;5053837;28;20087;-30
2022/07/24 01:01:30;;;;;;;7.75;5.40;;;13.50;99.90;;;;;;5055073;28;20045;-28
2022/07/24 01:03:57;;;;;;;8.45;6.10;;;13.40;99.90;;;;;;5053820;28;20049;-28
2022/07/24 01:06:23;;;;;;;7.28;5.70;;;13.40;99.90;;;;;;5054129;28;20174;-28
2022/07/24 01:08:50;;;;;;;6.57;5.97;;;13.40;99.90;;;;;;5056233;28;20423;-28
2022/07/24 01:11:16;;;;;;;7.40;5.65;;;13.40;99.90;;;;;;5053927;28;20483;-27
2022/07/24 01:13:42;;;;;;;8.90;6.35;;;13.50;99.90;;;;;;5053745;28;20364;-28
2022/07/24 01:16:09;;;;;;;9.13;6.30;;;13.50;99.90;;;;;;5053299;28;20045;-28
2022/07/24 01:18:35;;;;;;;8.25;6.03;;;13.60;99.90;;;;;;5052843;28;20290;-28
2022/07/24 01:21:02;;;;;;;8.20;6.70;;;13.60;99.90;;;;;;5053198;28;20122;-28
2022/07/24 01:23:27;;;;;;;7.93;6.57;;;13.60;99.90;;;;;;5052047;28;20041;-28
2022/07/24 01:25:53;;;;;;;10.65;6.30;;;13.70;99.90;;;;;;5052975;28;20056;-28
2022/07/24 01:28:19;;;;;;;7.88;6.05;;;13.70;99.90;;;;;;5053199;28;20045;-28
2022/07/24 01:30:45;;;;;;;9.52;6.30;;;13.70;99.90;;;;;;5052982;28;20044;-28
2022/07/24 01:33:11;;;;;;;10.23;6.82;;;13.70;99.90;;;;;;5053127;28;20395;-28
2022/07/24 01:35:36;;;;;;;7.28;6.57;;;13.70;99.90;;;;;;5053714;28;20045;-28
2022/07/24 01:38:02;;;;;;;9.68;7.20;;;13.70;99.90;;;;;;5050928;28;20051;-28
2022/07/24 01:40:28;;;;;;;10.70;6.72;;;13.60;99.90;;;;;;5052741;28;20048;-28
2022/07/24 01:42:54;;;;;;;7.93;6.40;;;13.60;99.90;;;;;;5052854;28;20048;-28
2022/07/24 01:45:20;;;;;;;8.75;6.50;;;13.60;99.90;;;;;;5052973;28;20049;-28
2022/07/24 01:47:46;;;;;;;8.88;7.28;;;13.60;99.90;;;;;;5052902;28;20147;-28
2022/07/24 01:50:13;;;;;;;7.43;6.72;;;13.60;99.90;;;;;;5053353;28;20541;-28
2022/07/24 01:52:38;;;;;;;9.88;6.57;;;13.60;99.90;;;;;;5054024;28;20116;-29
2022/07/24 01:55:05;;;;;;;9.60;7.75;;;13.50;99.90;;;;;;5051804;28;20136;-28
2022/07/24 01:57:31;;;;;;;11.32;6.95;;;13.50;99.90;;;;;;5051416;28;20041;-28
2022/07/24 01:59:58;;;;;;;7.82;7.03;;;13.50;99.90;;;;;;5054046;28;20091;-28
2022/07/24 02:02:24;;;;;;;7.95;7.25;;;13.50;99.90;;;;;;5051975;28;20045;-29
2022/07/24 02:04:50;;;;;;;7.70;7.00;;;13.50;99.90;;;;;;5049623;28;20099;-28
2022/07/24 02:07:16;;;;;;;8.80;7.38;;;13.50;99.90;;;;;;5051579;28;20124;-29
2022/07/24 02:09:41;;;;;;;7.90;7.10;;;13.40;99.90;;;;;;5056286;28;20102;-28
2022/07/24 02:12:07;;;;;;;8.93;8.10;;;13.50;99.90;;;;;;5054203;28;20041;-28
2022/07/24 02:14:33;;;;;;;10.25;8.10;;;13.50;99.90;;;;;;5054147;28;20418;-28
2022/07/24 02:16:59;;;;;;;8.40;7.22;;;13.50;99.90;;;;;;5051777;28;20036;-28
2022/07/24 02:19:24;;;;;;;9.93;7.20;;;13.50;99.90;;;;;;5051758;28;20494;-29
2022/07/24 02:21:50;;;;;;;9.50;7.32;;;13.50;99.90;;;;;;5052577;28;20071;-28
2022/07/24 02:24:16;;;;;;;12.38;8.07;;;13.50;99.90;;;;;;5053161;28;20053;-28
2022/07/24 02:26:42;;;;;;;10.50;8.18;;;13.50;99.90;;;;;;5053082;28;20045;-27
2022/07/24 02:29:08;;;;;;;10.20;8.57;;;13.50;99.90;;;;;;5050751;28;20099;-28
2022/07/24 02:31:34;;;;;;;11.00;8.32;;;13.50;1.00;;;;;;5052989;28;20049;-28
2022/07/24 02:34:00;;;;;;;9.68;7.60;;;13.60;1.00;;;;;;5052528;28;20041;-28
2022/07/24 02:36:26;;;;;;;12.15;8.07;;;13.60;1.00;;;;;;5052657;28;20053;-28
2022/07/24 02:38:52;;;;;;;11.38;7.43;;;13.60;1.00;;;;;;5051999;28;20565;-28
2022/07/24 02:41:18;;;;;;;10.82;8.00;;;13.60;1.00;;;;;;5052477;28;20049;-28
2022/07/24 02:43:44;;;;;;;8.50;7.45;;;13.60;1.00;;;;;;5051549;28;20486;-28
2022/07/24 02:46:09;;;;;;;9.88;8.52;;;13.60;1.00;;;;;;5052975;28;20161;-28
2022/07/24 02:48:36;;;;;;;9.57;8.05;;;13.70;1.00;;;;;;5052740;28;20045;-28
2022/07/24 02:51:02;;;;;;;8.85;7.97;;;13.70;1.00;;;;;;5056017;28;20041;-29
2022/07/24 02:53:28;;;;;;;8.73;7.68;;;13.70;1.00;;;;;;5054729;28;20080;-30
2022/07/24 02:55:54;;;;;;;8.98;6.97;;;13.70;1.00;;;;;;5055682;28;20084;-29
2022/07/24 02:58:20;;;;;;;8.95;8.05;;;13.70;1.00;;;;;;5056418;28;20122;-28
2022/07/24 03:00:45;;;;;;;8.32;7.50;;;13.70;99.90;;;;;;5056064;28;20049;-28
2022/07/24 03:03:11;;;;;;;9.40;8.27;;;13.70;99.90;;;;;;5056532;28;20044;-28
2022/07/24 03:05:37;;;;;;;10.07;8.57;;;13.70;99.90;;;;;;5055805;28;20099;-28
2022/07/24 03:08:03;;;;;;;9.30;7.88;;;13.70;99.90;;;;;;5056385;28;20127;-28
2022/07/24 03:10:29;;;;;;;12.02;7.93;;;13.70;99.90;;;;;;5059140;28;20044;-28
2022/07/24 03:12:55;;;;;;;10.35;8.77;;;13.70;99.90;;;;;;5055299;28;20566;-28
2022/07/24 03:15:20;;;;;;;12.00;8.52;;;13.70;99.90;;;;;;5054513;28;20044;-28
2022/07/24 03:17:56;;;;;;;10.50;7.40;;;13.80;99.90;;;;;;5054072;28;20552;-28
2022/07/24 03:20:27;;;;;;;8.68;7.80;;;13.80;1.00;;;;;;5054296;28;20510;-28
2022/07/24 03:22:53;;;;;;;8.40;7.50;;;13.90;1.00;;;;;;5054818;28;20056;-28
2022/07/24 03:25:19;;;;;;;8.75;7.15;;;13.90;1.00;;;;;;5055995;28;20048;-28
2022/07/24 03:27:46;;;;;;;8.65;7.78;;;13.90;1.00;;;;;;5053955;28;20095;-29
2022/07/24 03:30:12;;;;;;;9.25;7.70;;;14.00;99.90;;;;;;5056520;28;20060;-28
2022/07/24 03:32:38;;;;;;;9.82;7.70;;;14.00;99.90;;;;;;5055184;28;20043;-28
2022/07/24 03:35:04;;;;;;;8.70;7.63;;;14.00;99.90;;;;;;5055585;28;20053;-28
2022/07/24 03:37:30;;;;;;;8.85;7.95;;;14.10;99.90;;;;;;5054606;28;20041;-28
2022/07/24 03:39:56;;;;;;;8.85;7.93;;;14.10;99.90;;;;;;5056346;28;20493;-28
2022/07/24 03:42:22;;;;;;;9.85;8.02;;;14.10;99.90;;;;;;5054384;28;20364;-28
2022/07/24 03:44:48;;;;;;;8.88;7.97;;;14.10;99.90;;;;;;5054546;28;20099;-28
2022/07/24 03:47:14;;;;;;;10.55;7.82;;;14.10;99.90;;;;;;5055223;28;20482;-29
2022/07/24 03:49:39;;;;;;;9.43;7.70;;;14.10;99.90;;;;;;5054622;28;20059;-27
2022/07/24 03:52:05;;;;;;;11.68;8.52;;;14.10;99.90;;;;;;5054183;28;20044;-30
2022/07/24 03:54:31;;;;;;;9.50;8.50;;;14.20;99.90;;;;;;5054083;28;20052;-28
2022/07/24 03:56:56;;;;;;;9.00;8.10;;;14.20;99.90;;;;;;5054961;28;20045;-29
2022/07/24 03:59:22;;;;;;;10.13;7.82;;;14.20;99.90;;;;;;5055444;28;20045;-28
2022/07/24 04:01:48;;;;;;;9.10;7.50;;;14.30;99.90;;;;;;5053191;28;20049;-28
2022/07/24 04:04:13;;;;;;;10.80;8.65;;;14.30;99.90;;;;;;5053623;28;20041;-28
2022/07/24 04:06:42;;;;;;;8.70;7.80;;;14.40;99.90;;;;;;5055773;28;20057;-28
2022/07/24 04:09:08;;;;;;;9.18;7.70;;;14.40;99.90;;;;;;5058117;28;20049;-28
2022/07/24 04:11:34;;;;;;;8.77;7.70;;;14.40;99.90;;;;;;5054066;28;20506;-28
2022/07/24 04:14:00;;;;;;;9.93;7.78;;;14.40;99.90;;;;;;5055169;28;20045;-28
2022/07/24 04:16:26;;;;;;;9.77;7.97;;;14.50;99.90;;;;;;5054981;28;20045;-28
2022/07/24 04:18:52;;;;;;;8.75;7.78;;;14.50;99.90;;;;;;5054233;28;20052;-28
2022/07/24 04:21:18;;;;;;;10.45;8.45;;;14.50;99.90;;;;;;5053814;28;20049;-28
2022/07/24 04:23:43;;;;;;;10.02;7.32;;;14.50;77.40;;;;;;5053152;28;20620;-29
2022/07/24 04:26:09;;;;;;;9.65;8.70;;;14.50;60.40;;;;;;5053176;28;20037;-28
2022/07/24 04:28:35;;;;;;;9.35;8.30;;;14.50;44.70;;;;;;5053643;28;20040;-28
2022/07/24 04:31:01;;;;;;;9.82;8.52;;;14.50;40.10;;;;;;5054870;28;20470;-28
2022/07/24 04:33:27;;;;;;;8.32;7.53;;;14.50;24.50;;;;;;5052316;28;20483;-28
2022/07/24 04:35:53;;;;;;;10.20;7.47;;;14.50;17.50;;;;;;5053957;28;20056;-28
2022/07/24 04:38:18;;;;;;;9.45;8.45;;;14.50;31.50;;;;;;5053915;28;20168;-28
2022/07/24 04:40:44;;;;;;;9.43;7.45;;;14.50;10.50;;;;;;5052870;28;20045;-28
2022/07/24 04:43:10;;;;;;;10.55;8.50;;;14.50;9.00;;;;;;5053014;28;20426;-28
2022/07/24 04:45:36;;;;;;;9.95;8.32;;;14.60;17.70;;;;;;5054550;28;20131;-28
2022/07/24 04:48:02;;;;;;;9.30;8.13;;;14.60;12.00;;;;;;5054523;28;20074;-28
2022/07/24 04:50:28;;;;;;;9.13;8.07;;;14.70;24.80;;;;;;5054400;28;20037;-28
2022/07/24 04:52:54;;;;;;;9.90;7.70;;;14.80;24.30;;;;;;5052795;28;20045;-28
2022/07/24 04:55:20;;;;;;;11.48;8.02;;;14.90;37.80;;;;;;5052883;28;20552;-28
2022/07/24 04:57:45;;;;;;;9.95;7.30;;;15.10;74.40;;;;;;5053975;28;20033;-28
2022/07/24 05:00:13;;;;;;;10.20;7.57;;;15.30;47.50;;;;;;5054306;28;20484;-28
2022/07/24 05:02:39;;;;;;;9.57;7.55;;;15.50;6.00;;;;;;5053953;28;20154;-29
2022/07/24 05:05:05;;;;;;;8.93;7.82;;;15.70;1.00;;;;;;5069612;28;20132;-28
2022/07/24 05:07:31;;;;;;;8.65;7.75;;;15.80;1.00;;;;;;5069436;28;20045;-28
2022/07/24 05:09:57;;;;;;;8.73;7.82;;;15.80;1.00;;;;;;5057592;28;20099;-28
2022/07/24 05:12:24;;;;;;;8.98;7.75;;;15.80;1.00;;;;;;5053173;28;20120;-28
2022/07/24 05:14:50;;;;;;;9.65;7.85;;;15.90;1.00;;;;;;5049941;28;20087;-28
2022/07/24 05:17:16;;;;;;;10.40;8.52;;;15.90;1.00;;;;;;5053332;28;20041;-28
2022/07/24 05:19:42;;;;;;;10.30;8.57;;;16.00;1.00;;;;;;5050785;28;20497;-28
2022/07/24 05:22:07;;;;;;;12.38;8.07;;;16.00;1.00;;;;;;5052101;28;20060;-28
2022/07/24 05:24:33;;;;;;;9.73;7.68;;;16.10;99.90;;;;;;5053008;28;20044;-28
2022/07/24 05:26:59;;;;;;;9.57;7.65;;;16.20;99.90;;;;;;5054072;28;20041;-28
2022/07/24 05:29:25;;;;;;;10.32;9.25;;;16.20;99.90;;;;;;5053225;28;20048;-28
2022/07/24 05:31:53;;;;;;;11.45;7.90;;;16.30;99.90;;;;;;5053737;28;20514;-28
2022/07/24 05:34:22;;;;;;;8.35;7.55;;;16.50;99.90;;;;;;5052240;28;20415;-28
2022/07/24 05:36:48;;;;;;;9.45;8.32;;;16.80;99.90;;;;;;5052530;28;20094;-28
2022/07/24 05:39:14;;;;;;;9.35;8.32;;;17.10;99.90;;;;;;5053165;28;20045;-28
2022/07/24 05:41:40;;;;;;;11.45;8.15;;;17.60;8.60;;;;;;5053956;28;20482;-28
2022/07/24 05:44:06;;;;;;;10.38;7.55;;;18.10;1.00;;;;;;5052225;28;20099;-29
2022/07/24 05:46:32;;;;;;;10.40;7.60;;;18.70;1.00;;;;;;5052192;28;20501;-28
2022/07/24 05:48:58;;;;;;;8.93;8.02;;;19.30;99.90;;;;;;5052140;28;20126;-28
2022/07/24 05:51:25;;;;;;;11.57;7.63;;;19.70;99.50;;;;;;5053311;28;20085;-28
2022/07/24 05:53:51;;;;;;;9.27;7.90;;;20.00;1.00;;;;;;5053531;28;20083;-28
2022/07/24 05:56:17;;;;;;;8.43;6.85;;;20.10;1.00;;;;;;5054065;28;20383;-28
2022/07/24 05:58:42;;;;;;;17.10;9.48;;;20.20;1.00;;;;;;5048878;28;20045;-28
2022/07/24 06:01:08;;;;;;;9.85;7.20;;;20.40;1.00;;;;;;5037845;28;20045;-28
2022/07/24 06:03:34;;;;;;;10.40;6.93;;;20.50;99.90;;;;;;5053110;28;20047;-28
2022/07/24 06:06:00;;;;;;;12.45;7.38;;;20.60;99.90;;;;;;5051266;28;20069;-28
2022/07/24 06:08:26;;;;;;;9.70;7.95;;;20.70;99.90;;;;;;5053399;28;20033;-28
2022/07/24 06:10:51;;;;;;;12.23;7.78;;;20.70;99.90;;;;;;5052211;28;20049;-28
2022/07/24 06:13:17;;;;;;;10.80;8.48;;;20.10;99.90;;;;;;5056690;28;20052;-27
2022/07/24 06:15:43;;;;;;;8.30;7.50;;;19.80;1.00;;;;;;5053316;28;20049;-27
2022/07/24 06:18:08;;;;;;;10.63;8.38;;;20.20;99.90;;;;;;5051984;28;20041;-27
2022/07/24 06:20:34;;;;;;;14.00;8.23;;;20.50;99.90;;;;;;5035039;28;20044;-27
2022/07/24 06:23:00;;;;;;;11.18;8.73;;;20.60;99.90;;;;;;5052549;28;20084;-27
2022/07/24 06:25:25;;;;;;;10.82;8.65;;;20.50;99.90;;;;;;5056717;28;20482;-27
2022/07/24 06:27:53;;;;;;;13.32;9.18;;;20.60;99.90;;;;;;5056922;28;20049;-27
2022/07/24 06:30:24;;;;;;;10.38;7.95;;;20.60;99.90;;;;;;5056151;28;20045;-27
2022/07/24 06:32:53;;;;;;;10.18;7.82;;;20.60;99.90;;;;;;5057776;28;20075;-27
2022/07/24 06:35:19;;;;;;;13.55;10.15;;;20.70;99.90;;;;;;5049022;28;20052;-27
2022/07/24 06:37:44;;;;;;;12.50;10.00;;;20.80;99.90;;;;;;5056216;28;20246;-27
2022/07/24 06:40:11;;;;;;;9.88;8.88;;;20.90;99.90;;;;;;5056955;28;20132;-27
2022/07/24 06:42:37;;;;;;;11.80;10.35;;;21.10;99.90;;;;;;5057722;28;20187;-27
2022/07/24 06:45:03;;;;;;;11.57;9.00;;;21.20;99.90;;;;;;5056919;28;20539;-27
2022/07/24 06:47:29;;;;;;;11.35;10.02;;;21.30;99.90;;;;;;5056011;28;20045;-28
2022/07/24 06:49:55;;;;;;;13.30;9.15;;;21.50;99.90;;;;;;5055107;28;20486;-27
2022/07/24 06:52:22;;;;;;;13.07;10.30;;;21.70;99.90;;;;;;5055536;28;20122;-27
2022/07/24 06:54:48;;;;;;;13.75;9.70;;;21.80;99.90;;;;;;5056681;28;20060;-27
2022/07/24 06:57:14;;;;;;;11.93;10.63;;;21.80;99.90;;;;;;5055489;28;20394;-27
2022/07/24 06:59:40;;;;;;;13.35;9.75;;;22.00;99.90;;;;;;5056569;28;20045;-27
2022/07/24 07:02:06;;;;;;;12.93;11.18;;;22.20;99.90;;;;;;5055766;28;20045;-27
2022/07/24 07:04:32;;;;;;;11.20;10.02;;;22.50;99.10;;;;;;5056170;28;20052;-28
2022/07/24 07:06:58;;;;;;;12.48;10.55;;;22.70;12.90;;;;;;5057305;28;20483;-27
2022/07/24 07:09:24;;;;;;;15.27;11.90;;;22.80;1.00;;;;;;5056935;28;20041;-27
2022/07/24 07:11:50;;;;;;;15.77;11.07;;;22.80;1.00;;;;;;5056316;28;20045;-27
2022/07/24 07:14:15;;;;;;;13.73;10.45;;;22.50;1.00;;;;;;5058326;28;20114;-29
2022/07/24 07:16:41;;;;;;;15.02;10.65;;;22.50;1.00;;;;;;5053194;28;20064;-27
2022/07/24 07:19:07;;;;;;;13.00;9.57;;;22.60;1.00;;;;;;5042384;28;20041;-27
2022/07/24 07:21:33;;;;;;;14.90;10.95;;;22.90;1.00;;;;;;5046824;28;20045;-27
2022/07/24 07:23:58;;;;;;;12.20;9.90;;;23.30;99.90;;;;;;5048512;28;20040;-27
2022/07/24 07:26:24;;;;;;;11.10;9.38;;;23.80;99.90;;;;;;5056008;28;20081;-27
2022/07/24 07:28:50;;;;;;;11.95;9.05;;;24.00;12.00;;;;;;5055953;28;20045;-27
2022/07/24 07:31:15;;;;;;;11.70;8.65;;;24.10;85.70;;;;;;5050578;28;20467;-27
2022/07/24 07:33:41;;;;;;;10.88;8.23;;;24.10;7.00;;;;;;5060623;28;20049;-27
2022/07/24 07:36:08;;;;;;;14.98;7.38;;;24.20;1.00;;;;;;5054656;28;20053;-27
2022/07/24 07:38:35;;;;;;;13.00;9.43;;;23.80;1.00;;;;;;5054721;28;20045;-27
2022/07/24 07:41:01;;;;;;;8.63;5.47;;;23.40;99.90;;;;;;5051055;28;20041;-27
2022/07/24 07:43:26;;;;;;;11.60;6.75;;;22.90;99.90;;;;;;5051232;28;20075;-27
2022/07/24 07:45:52;;;;;;;7.60;5.82;;;22.50;99.90;;;;;;5050912;28;20406;-28
2022/07/24 07:48:18;;;;;;;8.25;6.00;;;22.30;99.90;;;;;;5058154;28;20056;-27
2022/07/24 07:50:44;;;;;;;6.43;5.68;;;22.20;99.90;;;;;;5048662;28;20398;-27
2022/07/24 07:53:09;;;;;;;8.63;6.43;;;22.10;99.90;;;;;;5054288;28;20044;-28
2022/07/24 07:55:35;;;;;;;5.80;5.03;;;22.20;1.00;;;;;;5055509;28;20056;-27
2022/07/24 07:58:01;;;;;;;8.50;5.55;;;22.30;1.00;;;;;;5054354;28;20045;-27
2022/07/24 08:00:27;;;;;;;10.05;6.53;;;22.30;1.00;;;;;;5049142;28;20053;-27
2022/07/24 08:02:53;;;;;;;6.28;5.25;;;22.40;1.00;;;;;;5035441;28;20045;-27
2022/07/24 08:05:19;;;;;;;7.53;5.43;;;22.50;99.90;;;;;;5035036;28;20069;-27
2022/07/24 08:07:44;;;;;;;8.82;5.38;;;22.50;99.90;;;;;;5035337;28;20056;-27
2022/07/24 08:10:10;;;;;;;7.68;5.55;;;22.70;99.90;;;;;;5035577;28;20128;-27
2022/07/24 08:12:36;;;;;;;5.40;4.80;;;23.00;99.90;;;;;;5055090;28;20142;-28
2022/07/24 08:15:03;;;;;;;9.75;5.50;;;23.00;99.90;;;;;;5055160;28;20087;-27
2022/07/24 08:17:28;;;;;;;6.68;5.07;;;23.50;99.90;;;;;;5055061;28;20044;-27
2022/07/24 08:19:54;;;;;;;6.15;4.70;;;23.80;87.70;;;;;;5055020;28;20072;-27
2022/07/24 08:22:20;;;;;;;8.10;5.68;;;23.70;20.50;;;;;;5053922;28;20119;-27
2022/07/24 08:24:45;;;;;;;7.75;5.00;;;23.50;99.90;;;;;;5054911;28;20041;-27
2022/07/24 08:27:11;;;;;;;7.80;5.05;;;23.40;99.90;;;;;;5054946;28;20125;-27
2022/07/24 08:29:37;;;;;;;4.55;3.70;;;23.30;99.90;;;;;;5052957;28;20045;-28
2022/07/24 08:32:03;;;;;;;4.85;4.15;;;23.30;99.90;;;;;;5054830;28;20053;-27
2022/07/24 08:34:28;;;;;;;7.25;3.65;;;23.20;99.90;;;;;;5055316;28;20041;-27
2022/07/24 08:36:54;;;;;;;6.40;3.63;;;23.00;99.90;;;;;;5050160;28;20048;-27
2022/07/24 08:39:20;;;;;;;8.23;4.30;;;23.10;99.90;;;;;;5053753;28;20048;-27
2022/07/24 08:41:46;;;;;;;6.53;3.70;;;23.20;99.90;;;;;;5054668;28;20075;-28
2022/07/24 08:44:12;;;;;;;4.60;3.60;;;23.70;99.90;;;;;;5054575;28;20045;-28
2022/07/24 08:46:39;;;;;;;6.88;4.28;;;24.00;49.30;;;;;;5053309;28;20045;-28
2022/07/24 08:49:10;;;;;;;5.07;4.20;;;23.70;92.20;;;;;;5052396;28;20053;-27
2022/07/24 08:51:38;;;;;;;7.43;4.95;;;23.70;63.90;;;;;;5055014;28;20049;-27
2022/07/24 08:54:05;;;;;;;5.90;3.97;;;23.70;46.80;;;;;;5063250;28;20101;-28
2022/07/24 08:56:33;;;;;;;6.65;4.10;;;23.80;13.90;;;;;;5054077;28;20572;-27
2022/07/24 08:58:59;;;;;;;6.93;3.88;;;23.70;91.00;;;;;;5053982;28;20491;-27
2022/07/24 09:01:25;;;;;;;6.03;4.05;;;23.70;33.60;;;;;;5054269;28;20048;-27
2022/07/24 09:03:51;;;;;;;6.88;4.53;;;23.50;45.00;;;;;;5053943;28;20568;-27
2022/07/24 09:06:17;;;;;;;5.63;4.38;;;23.40;99.90;;;;;;5052743;28;20057;-27
2022/07/24 09:09:00;;;;;;;6.15;4.13;;;23.20;99.90;;;;;;5054143;28;20045;-29
2022/07/24 09:11:29;;;;;;;6.68;3.63;;;23.30;99.90;;;;;;5054711;28;20041;-27
2022/07/24 09:16:47;;;;;;;8.90;3.30;;;24.20;1.00;;;;;;5053371;28;20049;-27
2022/07/24 09:19:13;;;;;;;3.53;2.97;;;24.50;1.00;;;;;;5053867;28;20487;-27
2022/07/24 09:21:41;;;;;;;3.53;3.03;;;24.50;99.90;;;;;;5052372;28;20056;-28
2022/07/24 09:24:14;;;;;;;9.13;3.28;;;24.50;99.90;;;;;;5053823;28;20056;-27
2022/07/24 09:26:51;;;;;;;5.03;3.05;;;24.60;99.90;;;;;;5032250;28;20437;-28
2022/07/24 09:29:19;;;;;;;7.25;2.78;;;24.80;99.90;;;;;;5050851;28;20045;-27
2022/07/24 09:31:54;;;;;;;4.45;2.85;;;24.70;99.90;;;;;;5051240;28;20044;-28
2022/07/24 09:34:20;;;;;;;6.13;2.97;;;25.00;99.90;;;;;;5051899;28;20048;-27
2022/07/24 09:37:04;;;;;;;4.03;3.17;;;25.50;99.90;;;;;;5062120;28;20051;-27
2022/07/24 09:39:37;;;;;;;4.57;3.08;;;26.10;16.60;;;;;;5052169;28;20041;-28
2022/07/24 09:42:05;;;;;;;7.80;2.58;;;26.10;1.00;;;;;;5037414;28;20037;-29
2022/07/24 09:44:31;;;;;;;5.60;2.38;;;25.80;1.00;;;;;;5047171;28;20407;-28
2022/07/24 09:47:12;;;;;;;6.53;3.47;;;25.80;3.50;;;;;;5045089;28;20049;-28
2022/07/24 09:49:39;;;;;;;4.03;2.35;;;26.20;1.00;;;;;;5052547;28;20051;-27
2022/07/24 09:52:15;;;;;;;7.38;2.55;;;26.20;1.00;;;;;;5053549;28;20080;-27
2022/07/24 09:54:43;;;;;;;5.53;2.13;;;25.90;1.00;;;;;;5050298;28;20051;-27
2022/07/24 09:57:22;;;;;;;4.57;2.45;;;25.50;1.00;;;;;;5048351;28;20049;-27
2022/07/24 09:59:49;;;;;;;5.10;2.47;;;25.40;1.00;;;;;;5045254;28;20483;-28
2022/07/24 10:02:17;;;;;;;4.70;2.10;;;25.40;1.00;;;;;;5057261;28;20152;-27
2022/07/24 10:04:46;;;;;;;2.75;1.83;;;25.30;1.00;;;;;;5050920;28;20128;-27
2022/07/24 10:07:15;;;;;;;3.65;2.25;;;25.00;1.00;;;;;;5058434;28;20056;-27
2022/07/24 10:09:43;;;;;;;2.42;2.00;;;24.80;1.00;;;;;;5056628;28;20073;-27
2022/07/24 10:12:23;;;;;;;4.20;2.05;;;24.50;1.00;;;;;;5054709;28;20534;-27
2022/07/24 10:14:51;;;;;;;6.82;1.90;;;24.60;99.90;;;;;;5053294;28;20049;-27
2022/07/24 10:17:17;;;;;;;4.63;2.72;;;24.80;99.90;;;;;;5055653;28;20053;-28
2022/07/24 10:19:49;;;;;;;5.68;2.30;;;24.90;73.30;;;;;;5057318;28;20391;-28
2022/07/24 10:22:16;;;;;;;5.82;2.55;;;24.80;20.20;;;;;;5056169;28;20049;-27
2022/07/24 10:25:04;;;;;;;3.75;2.38;;;24.50;99.90;;;;;;5057155;28;20048;-27
2022/07/24 10:27:35;;;;;;;4.40;2.05;;;24.70;99.90;;;;;;5055147;28;20037;-29
2022/07/24 10:30:05;;;;;;;6.93;2.25;;;24.90;99.90;;;;;;5036126;28;20147;-27
2022/07/24 10:32:33;;;;;;;5.60;2.33;;;25.30;93.60;;;;;;5057085;28;20057;-27
2022/07/24 10:35:17;;;;;;;4.13;2.13;;;25.90;1.00;;;;;;5053625;28;20420;-27
2022/07/24 10:38:01;;;;;;;6.57;2.47;;;26.80;99.90;;;;;;5055386;28;20121;-27
2022/07/24 10:40:44;;;;;;;4.57;2.30;;;27.70;59.20;;;;;;5055887;28;20041;-27
2022/07/24 10:43:18;;;;;;;4.07;2.40;;;28.00;1.00;;;;;;5062062;28;20438;-28
2022/07/24 10:45:55;;;;;;;4.15;1.83;;;28.00;99.90;;;;;;5061689;28;20057;-28
2022/07/24 10:48:27;;;;;;;4.22;2.20;;;27.30;1.00;;;;;;5056382;28;20487;-28
2022/07/24 10:51:06;;;;;;;4.50;2.25;;;26.60;1.00;;;;;;5051967;28;20055;-29
2022/07/24 10:53:58;;;;;;;5.47;2.60;;;25.70;99.90;;;;;;5067635;28;20095;-28
2022/07/24 10:56:42;;;;;;;5.70;2.40;;;25.30;99.90;;;;;;5037378;28;20060;-27
2022/07/24 10:59:12;;;;;;;3.50;2.67;;;25.30;99.90;;;;;;5041550;28;20310;-28
2022/07/24 11:01:42;;;;;;;3.85;2.25;;;25.30;99.90;;;;;;5054024;28;20110;-28
2022/07/24 11:04:24;;;;;;;4.25;2.20;;;25.30;99.90;;;;;;5054146;28;20502;-28
2022/07/24 11:07:16;;;;;;;4.18;2.28;;;25.50;99.90;;;;;;5055431;28;20064;-27
2022/07/24 11:10:07;;;;;;;5.93;3.22;;;25.70;99.90;;;;;;5050843;28;20052;-27
2022/07/24 11:12:42;;;;;;;3.85;2.22;;;26.10;1.00;;;;;;5053605;28;20067;-28
2022/07/24 11:17:53;;;;;;;3.08;1.85;;;27.10;99.90;;;;;;5051306;28;20049;-29
2022/07/24 11:20:21;;;;;;;4.22;1.90;;;27.20;99.90;;;;;;5054695;28;20448;-27
2022/07/24 11:22:55;;;;;;;3.05;1.98;;;27.10;99.90;;;;;;5053727;28;20479;-27
2022/07/24 11:25:23;;;;;;;5.32;2.13;;;26.90;99.90;;;;;;5054991;28;20084;-29
2022/07/24 11:27:58;;;;;;;3.63;1.88;;;26.60;99.90;;;;;;5054073;28;20060;-28
2022/07/24 11:30:26;;;;;;;3.17;1.77;;;26.90;99.90;;;;;;5056628;28;20064;-27
2022/07/24 11:32:52;;;;;;;8.25;2.75;;;27.30;99.90;;;;;;5054430;28;20049;-28
2022/07/24 11:35:27;;;;;;;3.35;1.95;;;27.50;93.80;;;;;;5052677;28;20047;-28
2022/07/24 11:37:53;;;;;;;2.88;1.75;;;27.20;18.20;;;;;;5053686;28;20070;-28
2022/07/24 11:40:21;;;;;;;3.75;1.80;;;27.40;99.90;;;;;;5038046;28;20135;-28
2022/07/24 11:42:55;;;;;;;2.63;1.70;;;27.90;99.90;;;;;;5052439;28;20076;-28
2022/07/24 11:45:20;;;;;;;2.97;1.70;;;28.00;14.80;;;;;;5045214;28;20041;-30
2022/07/24 11:47:46;;;;;;;2.42;1.77;;;28.00;1.00;;;;;;5048723;28;20056;-28
2022/07/24 11:50:12;;;;;;;3.10;2.00;;;27.90;99.90;;;;;;5054483;28;20056;-28
2022/07/24 11:52:40;;;;;;;3.53;1.63;;;28.00;51.10;;;;;;5049795;28;20045;-28
2022/07/24 11:55:06;;;;;;;4.68;1.90;;;28.10;1.00;;;;;;5052265;28;20403;-28
2022/07/24 11:57:38;;;;;;;3.03;1.88;;;28.10;1.00;;;;;;5045971;28;20045;-28
2022/07/24 12:00:09;;;;;;;3.17;1.98;;;28.20;1.00;;;;;;5047625;28;20061;-28
2022/07/24 12:02:35;;;;;;;4.67;1.83;;;28.40;1.00;;;;;;5044273;28;20080;-28
2022/07/24 12:05:04;;;;;;;3.38;1.85;;;28.60;1.00;;;;;;5028204;28;20404;-28
2022/07/24 12:07:30;;;;;;;3.25;1.73;;;28.20;1.00;;;;;;5049517;28;20044;-28
2022/07/24 12:09:58;;;;;;;4.78;1.88;;;27.80;1.00;;;;;;5044771;28;20040;-27
2022/07/24 12:12:32;;;;;;;3.17;1.90;;;28.20;46.50;;;;;;5044402;28;20044;-28
2022/07/24 12:15:17;;;;;;;4.55;2.05;;;28.40;1.00;;;;;;5043712;28;20045;-28
2022/07/24 12:18:02;;;;;;;4.45;2.10;;;28.50;1.00;;;;;;5047939;28;20041;-27
2022/07/24 12:20:37;;;;;;;2.75;1.90;;;28.30;1.00;;;;;;5044704;28;20041;-28
2022/07/24 12:23:07;;;;;;;3.90;2.30;;;27.90;1.00;;;;;;5050031;28;20094;-28
2022/07/24 12:25:36;;;;;;;8.60;2.05;;;27.90;1.00;;;;;;5043357;28;20041;-27
2022/07/24 12:28:10;;;;;;;2.42;1.63;;;28.00;1.00;;;;;;5044358;28;20134;-28
2022/07/24 12:30:46;;;;;;;5.95;2.25;;;27.90;1.00;;;;;;5046605;28;20061;-27
2022/07/24 12:33:24;;;;;;;3.05;2.00;;;27.90;1.00;;;;;;5048405;28;20124;-29
2022/07/24 12:35:55;;;;;;;4.65;1.50;;;27.90;1.00;;;;;;5048866;28;20048;-28
2022/07/24 12:38:28;;;;;;;3.38;2.03;;;28.10;1.00;;;;;;5042754;28;20069;-28
2022/07/24 12:41:14;;;;;;;2.83;1.67;;;27.90;1.00;;;;;;5046363;28;20102;-28
2022/07/24 12:43:52;;;;;;;4.43;1.90;;;28.10;1.00;;;;;;5042781;28;20048;-28
2022/07/24 12:46:25;;;;;;;3.70;1.90;;;27.90;1.00;;;;;;5045777;28;20052;-28
2022/07/24 12:49:00;;;;;;;1.88;1.40;;;27.90;1.00;;;;;;5053121;28;20037;-28
2022/07/24 12:51:26;;;;;;;5.43;2.10;;;28.40;1.00;;;;;;5051282;28;20163;-28
2022/07/24 12:53:54;;;;;;;4.25;1.88;;;28.70;1.00;;;;;;5053110;28;20047;-27
2022/07/24 12:56:20;;;;;;;2.35;1.63;;;29.00;1.00;;;;;;5052649;28;20045;-28